createdAt,value
2017-07-07T00:00:38.595Z,80
2017-07-07T00:01:40.657Z,81
2017-07-07T00:02:42.718Z,81
2017-07-07T00:03:44.779Z,81
2017-07-07T00:04:46.834Z,81
2017-07-07T00:05:48.901Z,81
2017-07-07T00:06:51.308Z,81
2017-07-07T00:07:53.365Z,80
2017-07-07T00:08:55.422Z,80
2017-07-07T00:09:57.482Z,80
2017-07-07T00:10:59.536Z,80
2017-07-07T00:12:01.607Z,80
2017-07-07T00:13:03.655Z,80
2017-07-07T00:14:05.722Z,79
2017-07-07T00:15:07.775Z,80
2017-07-07T00:16:09.837Z,79
2017-07-07T00:17:11.893Z,79
2017-07-07T00:18:13.953Z,79
2017-07-07T00:19:16.019Z,79
2017-07-07T00:20:18.076Z,79
2017-07-07T00:21:20.137Z,79
2017-07-07T00:22:22.574Z,79
2017-07-07T00:23:24.625Z,79
2017-07-07T00:24:26.687Z,79
2017-07-07T00:25:28.753Z,78
2017-07-07T00:26:30.814Z,78
2017-07-07T00:27:32.878Z,78
2017-07-07T00:28:34.930Z,78
2017-07-07T00:29:36.997Z,78
2017-07-07T00:30:39.057Z,78
2017-07-07T00:31:41.114Z,78
2017-07-07T00:32:43.184Z,78
2017-07-07T00:33:45.244Z,77
2017-07-07T00:34:47.676Z,78
2017-07-07T00:35:50.081Z,77
2017-07-07T00:36:52.141Z,77
2017-07-07T00:37:54.200Z,77
2017-07-07T00:38:56.256Z,78
2017-07-07T00:39:58.690Z,77
2017-07-07T00:41:01.176Z,78
2017-07-07T00:42:03.230Z,78
2017-07-07T00:43:05.287Z,77
2017-07-07T00:44:07.341Z,78
2017-07-07T00:45:09.408Z,79
2017-07-07T00:46:11.470Z,78
2017-07-07T00:47:13.527Z,78
2017-07-07T00:48:15.597Z,78
2017-07-07T00:49:17.648Z,79
2017-07-07T00:50:19.699Z,78
2017-07-07T00:51:21.760Z,78
2017-07-07T00:52:23.814Z,78
2017-07-07T00:53:25.871Z,79
2017-07-07T00:54:28.287Z,80
2017-07-07T00:55:30.332Z,78
2017-07-07T00:56:32.400Z,78
2017-07-07T00:57:34.459Z,79
2017-07-07T00:58:36.519Z,78
2017-07-07T00:59:38.586Z,78
2017-07-07T01:00:40.986Z,79
2017-07-07T01:01:43.426Z,78
2017-07-07T01:02:45.490Z,78
2017-07-07T01:03:47.551Z,78
2017-07-07T01:04:49.613Z,79
2017-07-07T01:05:51.670Z,79
2017-07-07T01:06:53.727Z,78
2017-07-07T01:07:55.788Z,78
2017-07-07T01:08:57.850Z,78
2017-07-07T01:09:59.919Z,78
2017-07-07T01:11:01.968Z,78
2017-07-07T01:12:04.029Z,78
2017-07-07T01:13:06.089Z,78
2017-07-07T01:14:08.142Z,77
2017-07-07T01:15:10.203Z,78
2017-07-07T01:16:12.267Z,78
2017-07-07T01:17:14.333Z,77
2017-07-07T01:18:16.393Z,77
2017-07-07T01:19:18.449Z,77
2017-07-07T01:20:20.510Z,77
2017-07-07T01:21:22.571Z,76
2017-07-07T01:22:24.634Z,77
2017-07-07T01:23:26.700Z,77
2017-07-07T01:24:29.100Z,77
2017-07-07T01:25:31.158Z,77
2017-07-07T01:26:33.219Z,77
2017-07-07T01:27:35.275Z,77
2017-07-07T01:28:37.343Z,77
2017-07-07T01:29:39.399Z,77
2017-07-07T01:30:41.458Z,77
2017-07-07T01:31:43.518Z,76
2017-07-07T01:32:45.573Z,76
2017-07-07T01:33:47.633Z,76
2017-07-07T01:34:49.694Z,76
2017-07-07T01:35:51.743Z,76
2017-07-07T01:36:54.165Z,76
2017-07-07T01:37:56.225Z,76
2017-07-07T01:38:58.290Z,77
2017-07-07T01:40:00.350Z,76
2017-07-07T01:41:02.407Z,77
2017-07-07T01:42:04.467Z,78
2017-07-07T01:43:06.515Z,77
2017-07-07T01:44:08.580Z,77
2017-07-07T01:45:10.645Z,78
2017-07-07T01:46:12.707Z,78
2017-07-07T01:47:14.760Z,77
2017-07-07T01:48:16.823Z,77
2017-07-07T01:49:18.879Z,77
2017-07-07T01:50:20.931Z,77
2017-07-07T01:51:22.993Z,76
2017-07-07T01:52:25.057Z,78
2017-07-07T01:53:27.118Z,78
2017-07-07T01:54:29.172Z,77
2017-07-07T01:55:31.236Z,78
2017-07-07T01:56:33.290Z,77
2017-07-07T01:57:35.353Z,77
2017-07-07T01:58:37.412Z,77
2017-07-07T01:59:39.472Z,76
2017-07-07T02:00:41.537Z,76
2017-07-07T02:01:43.587Z,76
2017-07-07T02:02:45.648Z,76
2017-07-07T02:03:47.774Z,76
2017-07-07T02:04:49.774Z,76
2017-07-07T02:05:51.834Z,76
2017-07-07T02:06:53.899Z,75
2017-07-07T02:07:55.956Z,75
2017-07-07T02:08:58.027Z,75
2017-07-07T02:10:00.081Z,75
2017-07-07T02:11:02.132Z,76
2017-07-07T02:12:04.195Z,75
2017-07-07T02:13:06.597Z,75
2017-07-07T02:14:09.302Z,75
2017-07-07T02:15:11.366Z,75
2017-07-07T02:16:13.420Z,75
2017-07-07T02:17:15.484Z,75
2017-07-07T02:18:17.536Z,75
2017-07-07T02:19:19.940Z,75
2017-07-07T02:20:22.004Z,75
2017-07-07T02:21:24.065Z,74
2017-07-07T02:22:26.126Z,74
2017-07-07T02:23:28.191Z,75
2017-07-07T02:24:30.242Z,74
2017-07-07T02:25:32.310Z,74
2017-07-07T02:26:34.366Z,75
2017-07-07T02:27:36.437Z,74
2017-07-07T02:28:38.496Z,75
2017-07-07T02:29:40.552Z,75
2017-07-07T02:30:42.615Z,75
2017-07-07T02:31:44.670Z,75
2017-07-07T02:32:46.732Z,75
2017-07-07T02:33:48.793Z,75
2017-07-07T02:34:50.846Z,75
2017-07-07T02:35:52.988Z,76
2017-07-07T02:36:55.077Z,76
2017-07-07T02:37:57.145Z,76
2017-07-07T02:38:59.207Z,75
2017-07-07T02:40:01.270Z,75
2017-07-07T02:41:03.334Z,76
2017-07-07T02:42:05.399Z,76
2017-07-07T02:43:07.455Z,76
2017-07-07T02:44:09.528Z,76
2017-07-07T02:45:11.587Z,76
2017-07-07T02:46:13.649Z,76
2017-07-07T02:47:15.711Z,76
2017-07-07T02:48:17.820Z,75
2017-07-07T02:49:19.825Z,75
2017-07-07T02:50:21.891Z,75
2017-07-07T02:51:23.963Z,75
2017-07-07T02:52:26.025Z,76
2017-07-07T02:53:28.078Z,75
2017-07-07T02:54:30.139Z,75
2017-07-07T02:55:32.198Z,75
2017-07-07T02:56:34.254Z,75
2017-07-07T02:57:36.320Z,75
2017-07-07T02:58:38.396Z,75
2017-07-07T02:59:40.474Z,75
2017-07-07T03:00:42.518Z,75
2017-07-07T03:01:44.581Z,76
2017-07-07T03:02:46.641Z,76
2017-07-07T03:03:48.710Z,76
2017-07-07T03:04:50.776Z,76
2017-07-07T03:05:52.837Z,76
2017-07-07T03:06:54.903Z,78
2017-07-07T03:07:56.957Z,77
2017-07-07T03:08:59.012Z,78
2017-07-07T03:10:01.431Z,78
2017-07-07T03:11:03.488Z,78
2017-07-07T03:12:05.555Z,77
2017-07-07T03:13:07.616Z,78
2017-07-07T03:14:09.673Z,77
2017-07-07T03:15:11.730Z,77
2017-07-07T03:16:13.790Z,77
2017-07-07T03:17:15.862Z,77
2017-07-07T03:18:17.933Z,77
2017-07-07T03:19:19.992Z,77
2017-07-07T03:20:22.056Z,77
2017-07-07T03:21:24.114Z,77
2017-07-07T03:22:26.178Z,77
2017-07-07T03:23:28.239Z,77
2017-07-07T03:24:30.298Z,77
2017-07-07T03:25:32.364Z,77
2017-07-07T03:26:34.430Z,77
2017-07-07T03:27:36.493Z,77
2017-07-07T03:28:38.556Z,77
2017-07-07T03:29:40.620Z,77
2017-07-07T03:30:42.677Z,77
2017-07-07T03:31:44.750Z,77
2017-07-07T03:32:46.808Z,77
2017-07-07T03:33:48.873Z,77
2017-07-07T03:34:50.936Z,78
2017-07-07T03:35:53.015Z,78
2017-07-07T03:36:55.468Z,79
2017-07-07T03:37:57.529Z,79
2017-07-07T03:38:59.595Z,80
2017-07-07T03:40:01.659Z,80
2017-07-07T03:41:03.708Z,80
2017-07-07T03:42:05.786Z,80
2017-07-07T03:43:07.835Z,80
2017-07-07T03:44:09.903Z,79
2017-07-07T03:45:11.970Z,79
2017-07-07T03:46:14.027Z,79
2017-07-07T03:47:16.102Z,79
2017-07-07T03:48:18.160Z,79
2017-07-07T03:49:20.222Z,78
2017-07-07T03:50:22.308Z,78
2017-07-07T03:51:24.349Z,78
2017-07-07T03:52:26.412Z,78
2017-07-07T03:53:28.470Z,78
2017-07-07T03:54:30.540Z,78
2017-07-07T03:55:32.602Z,78
2017-07-07T03:56:34.665Z,78
2017-07-07T03:57:36.734Z,78
2017-07-07T03:58:38.792Z,78
2017-07-07T03:59:40.847Z,78
2017-07-07T04:00:42.909Z,78
2017-07-07T04:01:44.972Z,78
2017-07-07T04:02:47.034Z,78
2017-07-07T04:03:49.105Z,78
2017-07-07T04:04:51.159Z,77
2017-07-07T04:05:53.228Z,77
2017-07-07T04:06:55.290Z,78
2017-07-07T04:07:57.351Z,77
2017-07-07T04:08:59.413Z,77
2017-07-07T04:10:01.475Z,77
2017-07-07T04:11:03.544Z,77
2017-07-07T04:12:05.601Z,77
2017-07-07T04:13:07.665Z,77
2017-07-07T04:14:09.739Z,76
2017-07-07T04:15:11.793Z,76
2017-07-07T04:16:13.862Z,77
2017-07-07T04:17:15.925Z,77
2017-07-07T04:18:17.995Z,77
2017-07-07T04:19:20.066Z,77
2017-07-07T04:20:22.124Z,77
2017-07-07T04:21:24.189Z,76
2017-07-07T04:22:26.250Z,77
2017-07-07T04:23:28.300Z,77
2017-07-07T04:24:30.371Z,78
2017-07-07T04:25:32.442Z,77
2017-07-07T04:26:34.505Z,77
2017-07-07T04:27:36.562Z,77
2017-07-07T04:28:38.625Z,77
2017-07-07T04:29:40.692Z,78
2017-07-07T04:30:42.753Z,78
2017-07-07T04:31:44.820Z,78
2017-07-07T04:32:46.896Z,78
2017-07-07T04:33:48.955Z,78
2017-07-07T04:34:51.017Z,78
2017-07-07T04:35:53.077Z,78
2017-07-07T04:36:55.199Z,78
2017-07-07T04:37:57.267Z,78
2017-07-07T04:38:59.336Z,78
2017-07-07T04:40:01.398Z,77
2017-07-07T04:41:03.467Z,78
2017-07-07T04:42:05.530Z,78
2017-07-07T04:43:07.593Z,77
2017-07-07T04:44:09.658Z,77
2017-07-07T04:45:11.717Z,77
2017-07-07T04:46:13.789Z,78
2017-07-07T04:47:15.852Z,78
2017-07-07T04:48:17.916Z,80
2017-07-07T04:49:19.981Z,81
2017-07-07T04:50:22.045Z,81
2017-07-07T04:51:24.113Z,80
2017-07-07T04:52:26.175Z,80
2017-07-07T04:53:28.485Z,81
2017-07-07T04:54:30.700Z,81
2017-07-07T04:55:32.752Z,79
2017-07-07T04:56:35.157Z,81
2017-07-07T04:57:37.221Z,80
2017-07-07T04:58:39.301Z,79
2017-07-07T04:59:41.363Z,78
2017-07-07T05:00:43.425Z,77
2017-07-07T05:01:45.491Z,78
2017-07-07T05:02:47.562Z,78
2017-07-07T05:03:49.617Z,77
2017-07-07T05:04:51.689Z,77
2017-07-07T05:05:53.757Z,77
2017-07-07T05:06:55.816Z,77
2017-07-07T05:07:57.885Z,77
2017-07-07T05:08:59.955Z,77
2017-07-07T05:10:02.017Z,77
2017-07-07T05:11:04.090Z,77
2017-07-07T05:12:06.192Z,77
2017-07-07T05:13:08.329Z,78
2017-07-07T05:14:10.384Z,78
2017-07-07T05:15:12.468Z,79
2017-07-07T05:16:14.549Z,78
2017-07-07T05:17:16.639Z,78
2017-07-07T05:18:18.759Z,78
2017-07-07T05:19:20.886Z,78
2017-07-07T05:20:22.969Z,78
2017-07-07T05:21:25.051Z,79
2017-07-07T05:22:27.169Z,79
2017-07-07T05:23:29.294Z,79
2017-07-07T05:24:31.764Z,79
2017-07-07T05:25:33.836Z,79
2017-07-07T05:26:35.916Z,79
2017-07-07T05:27:38.038Z,80
2017-07-07T05:28:40.104Z,80
2017-07-07T05:29:42.163Z,80
2017-07-07T05:30:44.288Z,80
2017-07-07T05:31:46.423Z,80
2017-07-07T05:32:48.542Z,80
2017-07-07T05:33:50.656Z,80
2017-07-07T05:34:52.761Z,80
2017-07-07T05:35:54.925Z,80
2017-07-07T05:36:57.035Z,81
2017-07-07T05:37:59.177Z,81
2017-07-07T05:39:01.270Z,81
2017-07-07T05:40:03.397Z,81
2017-07-07T05:41:05.503Z,82
2017-07-07T05:42:07.556Z,82
2017-07-07T05:43:09.646Z,83
2017-07-07T05:44:11.714Z,84
2017-07-07T05:45:13.770Z,84
2017-07-07T05:46:15.834Z,86
2017-07-07T05:47:17.891Z,87
2017-07-07T05:48:19.953Z,86
2017-07-07T05:49:22.014Z,87
2017-07-07T05:50:24.079Z,86
2017-07-07T05:51:26.155Z,86
2017-07-07T05:52:28.210Z,86
2017-07-07T05:53:30.270Z,86
2017-07-07T05:54:32.336Z,87
2017-07-07T05:55:34.408Z,87
2017-07-07T05:56:36.468Z,87
2017-07-07T05:57:38.527Z,87
2017-07-07T05:58:40.587Z,87
2017-07-07T05:59:42.993Z,87
2017-07-07T06:00:45.061Z,87
2017-07-07T06:01:47.477Z,87
2017-07-07T06:02:49.538Z,88
2017-07-07T06:03:51.607Z,88
2017-07-07T06:04:53.661Z,88
2017-07-07T06:05:55.725Z,89
2017-07-07T06:06:58.148Z,89
2017-07-07T06:08:00.214Z,89
2017-07-07T06:09:02.286Z,89
2017-07-07T06:10:04.350Z,90
2017-07-07T06:11:06.406Z,90
2017-07-07T06:12:08.483Z,90
2017-07-07T06:13:10.548Z,90
2017-07-07T06:14:12.604Z,90
2017-07-07T06:15:14.679Z,90
2017-07-07T06:16:16.741Z,90
2017-07-07T06:17:18.791Z,90
2017-07-07T06:18:20.859Z,90
2017-07-07T06:19:22.921Z,90
2017-07-07T06:20:24.992Z,90
2017-07-07T06:21:27.061Z,89
2017-07-07T06:22:29.122Z,89
2017-07-07T06:23:31.193Z,89
2017-07-07T06:24:33.585Z,90
2017-07-07T06:25:35.651Z,90
2017-07-07T06:26:37.726Z,90
2017-07-07T06:27:39.787Z,89
2017-07-07T06:28:41.871Z,89
2017-07-07T06:29:43.935Z,89
2017-07-07T06:30:46.703Z,89
2017-07-07T06:31:48.767Z,89
2017-07-07T06:32:50.821Z,88
2017-07-07T06:33:52.883Z,88
2017-07-07T06:34:54.947Z,88
2017-07-07T06:35:57.157Z,88
2017-07-07T06:36:59.290Z,88
2017-07-07T06:38:01.360Z,89
2017-07-07T06:39:03.428Z,89
2017-07-07T06:40:05.497Z,89
2017-07-07T06:41:07.568Z,89
2017-07-07T06:42:09.630Z,89
2017-07-07T06:43:11.724Z,88
2017-07-07T06:44:13.783Z,88
2017-07-07T06:45:15.840Z,88
2017-07-07T06:46:17.908Z,88
2017-07-07T06:47:19.979Z,88
2017-07-07T06:48:22.052Z,88
2017-07-07T06:49:24.117Z,88
2017-07-07T06:50:26.192Z,88
2017-07-07T06:51:28.265Z,88
2017-07-07T06:52:30.321Z,88
2017-07-07T06:53:32.385Z,88
2017-07-07T06:54:34.458Z,88
2017-07-07T06:55:36.527Z,88
2017-07-07T06:56:38.606Z,88
2017-07-07T06:57:40.681Z,89
2017-07-07T06:58:42.749Z,89
2017-07-07T06:59:44.827Z,88
2017-07-07T07:00:46.890Z,88
2017-07-07T07:01:48.965Z,88
2017-07-07T07:02:51.034Z,88
2017-07-07T07:03:53.104Z,89
2017-07-07T07:04:55.173Z,89
2017-07-07T07:05:57.236Z,89
2017-07-07T07:06:59.306Z,89
2017-07-07T07:08:01.717Z,89
2017-07-07T07:09:03.778Z,89
2017-07-07T07:10:05.856Z,88
2017-07-07T07:11:07.920Z,88
2017-07-07T07:12:09.987Z,88
2017-07-07T07:13:12.068Z,89
2017-07-07T07:14:14.132Z,89
2017-07-07T07:15:16.198Z,89
2017-07-07T07:16:18.614Z,89
2017-07-07T07:17:20.674Z,89
2017-07-07T07:18:22.728Z,89
2017-07-07T07:19:24.798Z,90
2017-07-07T07:20:26.867Z,90
2017-07-07T07:21:28.947Z,90
2017-07-07T07:22:31.007Z,90
2017-07-07T07:23:33.075Z,89
2017-07-07T07:24:35.144Z,88
2017-07-07T07:25:37.194Z,88
2017-07-07T07:26:39.266Z,88
2017-07-07T07:27:41.339Z,87
2017-07-07T07:28:43.756Z,87
2017-07-07T07:29:45.810Z,87
2017-07-07T07:30:47.870Z,87
2017-07-07T07:31:49.942Z,88
2017-07-07T07:32:52.002Z,88
2017-07-07T07:33:54.075Z,88
2017-07-07T07:34:56.140Z,88
2017-07-07T07:35:58.291Z,87
2017-07-07T07:37:00.355Z,87
2017-07-07T07:38:02.413Z,88
2017-07-07T07:39:04.488Z,88
2017-07-07T07:40:06.561Z,88
2017-07-07T07:41:08.627Z,88
2017-07-07T07:42:10.689Z,87
2017-07-07T07:43:12.749Z,87
2017-07-07T07:44:14.830Z,86
2017-07-07T07:45:17.241Z,86
2017-07-07T07:46:19.308Z,86
2017-07-07T07:47:21.384Z,86
2017-07-07T07:48:23.440Z,86
2017-07-07T07:49:25.514Z,86
2017-07-07T07:50:27.582Z,86
2017-07-07T07:51:29.633Z,86
2017-07-07T07:52:31.702Z,85
2017-07-07T07:53:33.766Z,86
2017-07-07T07:54:35.827Z,86
2017-07-07T07:55:37.906Z,85
2017-07-07T07:56:39.974Z,85
2017-07-07T07:57:42.039Z,86
2017-07-07T07:58:44.097Z,85
2017-07-07T07:59:46.165Z,85
2017-07-07T08:00:48.238Z,85
2017-07-07T08:01:50.298Z,85
2017-07-07T08:02:52.368Z,85
2017-07-07T08:03:54.433Z,85
2017-07-07T08:04:56.501Z,85
2017-07-07T08:05:58.567Z,86
2017-07-07T08:07:00.622Z,86
2017-07-07T08:08:02.695Z,86
2017-07-07T08:09:04.759Z,85
2017-07-07T08:10:06.824Z,86
2017-07-07T08:11:09.236Z,86
2017-07-07T08:12:11.304Z,86
2017-07-07T08:13:13.366Z,86
2017-07-07T08:14:15.440Z,87
2017-07-07T08:15:17.504Z,87
2017-07-07T08:16:19.577Z,87
2017-07-07T08:17:21.645Z,87
2017-07-07T08:18:23.709Z,87
2017-07-07T08:19:25.763Z,87
2017-07-07T08:20:27.832Z,87
2017-07-07T08:21:29.892Z,87
2017-07-07T08:22:31.952Z,87
2017-07-07T08:23:34.017Z,87
2017-07-07T08:24:36.083Z,87
2017-07-07T08:25:38.152Z,87
2017-07-07T08:26:40.220Z,87
2017-07-07T08:27:42.285Z,86
2017-07-07T08:28:44.346Z,87
2017-07-07T08:29:46.409Z,87
2017-07-07T08:30:48.472Z,87
2017-07-07T08:31:50.519Z,87
2017-07-07T08:32:52.596Z,87
2017-07-07T08:33:54.666Z,87
2017-07-07T08:34:56.728Z,86
2017-07-07T08:35:58.840Z,87
2017-07-07T08:37:00.916Z,87
2017-07-07T08:38:02.980Z,86
2017-07-07T08:39:05.070Z,87
2017-07-07T08:40:07.110Z,87
2017-07-07T08:41:09.183Z,88
2017-07-07T08:42:11.249Z,87
2017-07-07T08:43:13.684Z,86
2017-07-07T08:44:15.747Z,86
2017-07-07T08:45:17.828Z,86
2017-07-07T08:46:19.886Z,86
2017-07-07T08:47:21.951Z,86
2017-07-07T08:48:24.028Z,86
2017-07-07T08:49:26.435Z,86
2017-07-07T08:50:28.492Z,86
2017-07-07T08:51:30.562Z,85
2017-07-07T08:52:32.631Z,85
2017-07-07T08:53:34.704Z,85
2017-07-07T08:54:36.763Z,85
2017-07-07T08:55:38.842Z,84
2017-07-07T08:56:40.967Z,85
2017-07-07T08:57:42.971Z,85
2017-07-07T08:58:45.035Z,84
2017-07-07T08:59:47.103Z,84
2017-07-07T09:00:49.182Z,84
2017-07-07T09:01:51.241Z,84
2017-07-07T09:02:53.303Z,84
2017-07-07T09:03:55.370Z,85
2017-07-07T09:04:57.781Z,85
2017-07-07T09:05:59.847Z,85
2017-07-07T09:07:01.906Z,85
2017-07-07T09:08:03.976Z,85
2017-07-07T09:09:06.048Z,84
2017-07-07T09:10:08.105Z,84
2017-07-07T09:11:10.180Z,85
2017-07-07T09:12:12.243Z,86
2017-07-07T09:13:14.314Z,86
2017-07-07T09:14:16.380Z,86
2017-07-07T09:15:18.443Z,87
2017-07-07T09:16:20.520Z,87
2017-07-07T09:17:22.588Z,87
2017-07-07T09:18:24.655Z,86
2017-07-07T09:19:26.717Z,85
2017-07-07T09:20:28.778Z,85
2017-07-07T09:21:30.857Z,85
2017-07-07T09:22:32.919Z,84
2017-07-07T09:23:34.989Z,85
2017-07-07T09:24:37.059Z,85
2017-07-07T09:25:39.125Z,85
2017-07-07T09:26:41.191Z,86
2017-07-07T09:27:43.264Z,85
2017-07-07T09:28:45.348Z,85
2017-07-07T09:29:47.414Z,82
2017-07-07T09:30:49.477Z,81
2017-07-07T09:31:51.540Z,80
2017-07-07T09:32:53.609Z,80
2017-07-07T09:33:55.676Z,80
2017-07-07T09:34:58.087Z,78
2017-07-07T09:36:00.570Z,78
2017-07-07T09:37:02.645Z,79
2017-07-07T09:38:05.062Z,82
2017-07-07T09:39:07.133Z,78
2017-07-07T09:40:09.199Z,75
2017-07-07T09:41:11.274Z,75
2017-07-07T09:42:13.345Z,75
2017-07-07T09:43:15.413Z,75
2017-07-07T09:44:17.821Z,75
2017-07-07T09:45:19.890Z,76
2017-07-07T09:46:21.965Z,76
2017-07-07T09:47:24.021Z,75
2017-07-07T09:48:26.095Z,73
2017-07-07T09:49:28.168Z,72
2017-07-07T09:50:30.239Z,72
2017-07-07T09:51:32.311Z,71
2017-07-07T09:52:34.387Z,70
2017-07-07T09:53:36.463Z,70
2017-07-07T09:54:38.534Z,70
2017-07-07T09:55:40.599Z,72
2017-07-07T09:56:42.678Z,69
2017-07-07T09:57:44.750Z,69
2017-07-07T09:58:46.829Z,69
2017-07-07T09:59:48.895Z,71
2017-07-07T10:00:50.977Z,70
2017-07-07T10:01:53.041Z,71
2017-07-07T10:02:55.107Z,68
2017-07-07T10:03:57.183Z,68
2017-07-07T10:04:59.311Z,67
2017-07-07T10:06:01.338Z,66
2017-07-07T10:07:03.413Z,67
2017-07-07T10:08:05.479Z,67
2017-07-07T10:09:07.557Z,69
2017-07-07T10:10:09.621Z,70
2017-07-07T10:11:11.699Z,68
2017-07-07T10:12:13.775Z,69
2017-07-07T10:13:15.854Z,69
2017-07-07T10:14:17.926Z,66
2017-07-07T10:15:20.001Z,67
2017-07-07T10:16:22.083Z,66
2017-07-07T10:17:24.162Z,65
2017-07-07T10:18:26.233Z,66
2017-07-07T10:19:28.320Z,68
2017-07-07T10:20:30.404Z,68
2017-07-07T10:21:32.490Z,67
2017-07-07T10:22:34.565Z,66
2017-07-07T10:23:36.642Z,66
2017-07-07T10:24:38.728Z,65
2017-07-07T10:25:40.816Z,64
2017-07-07T10:26:42.891Z,65
2017-07-07T10:27:44.959Z,65
2017-07-07T10:28:47.042Z,68
2017-07-07T10:29:49.110Z,70
2017-07-07T10:30:51.200Z,68
2017-07-07T10:31:53.280Z,70
2017-07-07T10:32:55.402Z,68
2017-07-07T10:33:57.445Z,68
2017-07-07T10:34:59.528Z,67
2017-07-07T10:36:01.663Z,68
2017-07-07T10:37:03.762Z,63
2017-07-07T10:38:05.839Z,62
2017-07-07T10:39:07.912Z,61
2017-07-07T10:40:09.999Z,62
2017-07-07T10:41:12.083Z,61
2017-07-07T10:42:14.160Z,62
2017-07-07T10:43:16.603Z,63
2017-07-07T10:44:18.683Z,62
2017-07-07T10:45:20.776Z,63
2017-07-07T10:46:22.860Z,62
2017-07-07T10:47:24.934Z,61
2017-07-07T10:48:27.026Z,61
2017-07-07T10:49:29.103Z,61
2017-07-07T10:50:31.188Z,62
2017-07-07T10:51:33.279Z,62
2017-07-07T10:52:35.357Z,62
2017-07-07T10:53:37.441Z,65
2017-07-07T10:54:39.518Z,64
2017-07-07T10:55:41.607Z,65
2017-07-07T10:56:44.040Z,61
2017-07-07T10:57:46.117Z,62
2017-07-07T10:58:48.194Z,61
2017-07-07T10:59:50.276Z,63
2017-07-07T11:00:52.366Z,61
2017-07-07T11:01:54.450Z,62
2017-07-07T11:02:56.534Z,64
2017-07-07T11:03:58.621Z,63
2017-07-07T11:05:00.698Z,60
2017-07-07T11:06:02.782Z,59
2017-07-07T11:07:04.869Z,62
2017-07-07T11:08:06.954Z,62
2017-07-07T11:09:09.036Z,64
2017-07-07T11:10:11.113Z,63
2017-07-07T11:11:13.199Z,63
2017-07-07T11:12:15.279Z,62
2017-07-07T11:13:17.364Z,61
2017-07-07T11:14:19.451Z,62
2017-07-07T11:15:21.543Z,63
2017-07-07T11:16:23.620Z,64
2017-07-07T11:17:25.699Z,65
2017-07-07T11:18:27.787Z,66
2017-07-07T11:19:29.865Z,65
2017-07-07T11:20:31.949Z,66
2017-07-07T11:21:34.043Z,65
2017-07-07T11:22:36.119Z,68
2017-07-07T11:23:38.204Z,64
2017-07-07T11:24:40.286Z,65
2017-07-07T11:25:42.362Z,66
2017-07-07T11:26:44.448Z,63
2017-07-07T11:27:46.532Z,63
2017-07-07T11:28:48.614Z,61
2017-07-07T11:29:50.694Z,61
2017-07-07T11:30:52.773Z,61
2017-07-07T11:31:54.867Z,61
2017-07-07T11:32:56.944Z,63
2017-07-07T11:34:00.098Z,62
2017-07-07T11:35:02.182Z,65
2017-07-07T11:36:04.258Z,63
2017-07-07T11:37:06.347Z,63
2017-07-07T11:38:08.438Z,64
2017-07-07T11:39:10.521Z,64
2017-07-07T11:40:12.601Z,65
2017-07-07T11:41:14.684Z,64
2017-07-07T11:42:17.132Z,64
2017-07-07T11:43:19.210Z,64
2017-07-07T11:44:21.305Z,65
2017-07-07T11:45:23.394Z,62
2017-07-07T11:46:25.483Z,62
2017-07-07T11:47:27.563Z,62
2017-07-07T11:48:30.016Z,63
2017-07-07T11:49:32.102Z,63
2017-07-07T11:50:34.178Z,62
2017-07-07T11:51:36.269Z,65
2017-07-07T11:52:38.365Z,63
2017-07-07T11:53:40.453Z,62
2017-07-07T11:54:42.543Z,63
2017-07-07T11:55:44.634Z,63
2017-07-07T11:56:46.721Z,63
2017-07-07T11:57:48.800Z,63
2017-07-07T11:58:50.882Z,63
2017-07-07T11:59:52.966Z,63
2017-07-07T12:00:55.047Z,65
2017-07-07T12:01:57.137Z,64
2017-07-07T12:02:59.224Z,63
2017-07-07T12:04:01.317Z,63
2017-07-07T12:05:03.416Z,64
2017-07-07T12:06:05.495Z,63
2017-07-07T12:07:07.583Z,64
2017-07-07T12:08:09.674Z,65
2017-07-07T12:09:12.116Z,64
2017-07-07T12:10:14.202Z,65
2017-07-07T12:11:16.287Z,65
2017-07-07T12:12:18.379Z,65
2017-07-07T12:13:20.464Z,66
2017-07-07T12:14:22.554Z,66
2017-07-07T12:15:24.647Z,66
2017-07-07T12:16:26.724Z,66
2017-07-07T12:17:28.812Z,66
2017-07-07T12:18:31.230Z,65
2017-07-07T12:19:33.314Z,65
2017-07-07T12:20:35.411Z,66
2017-07-07T12:21:37.490Z,66
2017-07-07T12:22:39.571Z,67
2017-07-07T12:23:41.664Z,67
2017-07-07T12:24:43.739Z,67
2017-07-07T12:25:45.823Z,68
2017-07-07T12:26:47.906Z,69
2017-07-07T12:27:49.990Z,68
2017-07-07T12:28:52.077Z,68
2017-07-07T12:29:54.162Z,68
2017-07-07T12:30:56.236Z,68
2017-07-07T12:31:58.323Z,68
2017-07-07T12:33:00.413Z,70
2017-07-07T12:34:02.495Z,69
2017-07-07T12:35:04.581Z,69
2017-07-07T12:36:06.670Z,70
2017-07-07T12:37:08.762Z,69
2017-07-07T12:38:10.838Z,69
2017-07-07T12:39:12.927Z,68
2017-07-07T12:40:15.023Z,67
2017-07-07T12:41:17.111Z,67
2017-07-07T12:42:19.194Z,66
2017-07-07T12:43:21.273Z,67
2017-07-07T12:44:23.347Z,66
2017-07-07T12:45:25.428Z,67
2017-07-07T12:46:27.502Z,68
2017-07-07T12:47:29.599Z,69
2017-07-07T12:48:31.682Z,69
2017-07-07T12:49:33.760Z,68
2017-07-07T12:50:35.852Z,68
2017-07-07T12:51:37.935Z,66
2017-07-07T12:52:40.016Z,65
2017-07-07T12:53:42.099Z,65
2017-07-07T12:54:44.181Z,66
2017-07-07T12:55:46.260Z,66
2017-07-07T12:56:48.339Z,68
2017-07-07T12:57:50.432Z,67
2017-07-07T12:58:52.513Z,67
2017-07-07T12:59:54.597Z,68
2017-07-07T13:00:56.680Z,67
2017-07-07T13:01:58.769Z,66
2017-07-07T13:03:00.849Z,66
2017-07-07T13:04:02.924Z,66
2017-07-07T13:05:05.012Z,66
2017-07-07T13:06:07.101Z,66
2017-07-07T13:07:09.184Z,66
2017-07-07T13:08:11.260Z,66
2017-07-07T13:09:13.340Z,66
2017-07-07T13:10:15.431Z,66
2017-07-07T13:11:17.510Z,65
2017-07-07T13:12:19.590Z,66
2017-07-07T13:13:21.676Z,66
2017-07-07T13:14:23.755Z,66
2017-07-07T13:15:25.836Z,65
2017-07-07T13:16:27.925Z,65
2017-07-07T13:17:30.010Z,66
2017-07-07T13:18:32.089Z,64
2017-07-07T13:19:34.171Z,65
2017-07-07T13:20:36.263Z,65
2017-07-07T13:21:38.339Z,64
2017-07-07T13:22:40.421Z,64
2017-07-07T13:23:42.513Z,65
2017-07-07T13:24:44.602Z,65
2017-07-07T13:25:46.678Z,65
2017-07-07T13:26:48.757Z,66
2017-07-07T13:27:50.840Z,64
2017-07-07T13:28:52.918Z,60
2017-07-07T13:29:55.012Z,60
2017-07-07T13:30:57.090Z,58
2017-07-07T13:31:59.163Z,59
2017-07-07T13:33:01.249Z,59
2017-07-07T13:34:03.340Z,58
2017-07-07T13:35:05.425Z,58
2017-07-07T13:36:07.511Z,61
2017-07-07T13:37:09.597Z,58
2017-07-07T13:38:11.678Z,59
2017-07-07T13:39:13.754Z,59
2017-07-07T13:40:15.837Z,60
2017-07-07T13:41:17.924Z,58
2017-07-07T13:42:20.013Z,58
2017-07-07T13:43:22.088Z,56
2017-07-07T13:44:24.164Z,58
2017-07-07T13:45:26.250Z,56
2017-07-07T13:46:28.340Z,54
2017-07-07T13:47:30.437Z,54
2017-07-07T13:48:32.531Z,56
2017-07-07T13:49:34.615Z,55
2017-07-07T13:50:36.705Z,56
2017-07-07T13:51:38.784Z,54
2017-07-07T13:52:41.577Z,56
2017-07-07T13:53:43.670Z,55
2017-07-07T13:54:45.762Z,55
2017-07-07T13:55:47.852Z,56
2017-07-07T13:56:49.936Z,57
2017-07-07T13:57:52.031Z,57
2017-07-07T13:58:54.116Z,57
2017-07-07T13:59:56.200Z,56
2017-07-07T14:00:58.298Z,57
2017-07-07T14:02:00.384Z,58
2017-07-07T14:03:02.478Z,59
2017-07-07T14:04:04.560Z,59
2017-07-07T14:05:06.644Z,59
2017-07-07T14:06:08.732Z,58
2017-07-07T14:07:10.827Z,58
2017-07-07T14:08:12.916Z,59
2017-07-07T14:09:15.005Z,59
2017-07-07T14:10:17.092Z,59
2017-07-07T14:11:19.189Z,60
2017-07-07T14:12:21.268Z,60
2017-07-07T14:13:23.362Z,59
2017-07-07T14:14:25.454Z,61
2017-07-07T14:15:27.548Z,60
2017-07-07T14:16:29.632Z,60
2017-07-07T14:17:31.727Z,59
2017-07-07T14:18:34.162Z,57
2017-07-07T14:19:36.257Z,56
2017-07-07T14:20:38.343Z,56
2017-07-07T14:21:40.434Z,57
2017-07-07T14:22:42.516Z,57
2017-07-07T14:23:44.607Z,57
2017-07-07T14:24:46.689Z,58
2017-07-07T14:25:48.776Z,57
2017-07-07T14:26:50.866Z,57
2017-07-07T14:27:52.952Z,58
2017-07-07T14:28:55.047Z,58
2017-07-07T14:29:57.133Z,59
2017-07-07T14:30:59.216Z,58
2017-07-07T14:32:01.306Z,58
2017-07-07T14:33:03.385Z,57
2017-07-07T14:34:05.484Z,57
2017-07-07T14:35:07.567Z,59
2017-07-07T14:36:09.664Z,59
2017-07-07T14:37:11.755Z,61
2017-07-07T14:38:13.867Z,59
2017-07-07T14:39:15.962Z,59
2017-07-07T14:40:18.093Z,58
2017-07-07T14:41:20.260Z,58
2017-07-07T14:42:22.361Z,58
2017-07-07T14:43:24.456Z,58
2017-07-07T14:44:26.918Z,59
2017-07-07T14:45:29.015Z,59